createdAt,value
2019-04-25T00:02:18.271Z,11.37
2019-04-25T00:04:47.507Z,11.36
2019-04-25T00:07:16.720Z,11.28
2019-04-25T00:09:52.011Z,11.26
2019-04-25T00:12:22.258Z,11.23
2019-04-25T00:14:51.284Z,11.19
2019-04-25T00:17:21.390Z,11.08
2019-04-25T00:19:49.082Z,10.96
2019-04-25T00:22:37.387Z,10.91
2019-04-25T00:25:24.232Z,10.88
2019-04-25T00:27:53.495Z,10.86
2019-04-25T00:30:22.875Z,10.79
2019-04-25T00:32:52.057Z,10.75
2019-04-25T00:35:21.732Z,10.74
2019-04-25T00:37:52.209Z,10.74
2019-04-25T00:40:19.775Z,10.70
2019-04-25T00:42:48.999Z,10.70
2019-04-25T00:45:18.215Z,10.66
2019-04-25T00:47:47.769Z,10.71
2019-04-25T00:50:16.747Z,10.70
2019-04-25T00:52:46.474Z,10.70
2019-04-25T00:55:26.054Z,10.78
2019-04-25T00:57:44.881Z,10.83
2019-04-25T01:00:23.799Z,10.88
2019-04-25T01:02:54.387Z,10.91
2019-04-25T01:05:22.231Z,10.95
2019-04-25T01:07:52.464Z,10.91
2019-04-25T01:10:21.417Z,10.90
2019-04-25T01:12:51.720Z,10.91
2019-04-25T01:15:19.131Z,10.84
2019-04-25T01:17:48.880Z,10.82
2019-04-25T01:20:17.564Z,10.82
2019-04-25T01:22:47.181Z,10.82
2019-04-25T01:25:16.081Z,10.80
2019-04-25T01:27:46.076Z,10.75
2019-04-25T01:30:14.490Z,10.72
2019-04-25T01:32:44.861Z,10.71
2019-04-25T01:35:19.959Z,10.68
2019-04-25T01:38:17.466Z,10.63
2019-04-25T01:40:58.293Z,10.56
2019-04-25T01:43:52.781Z,10.47
2019-04-25T01:46:18.673Z,10.35
2019-04-25T01:48:48.604Z,10.28
2019-04-25T01:51:17.217Z,10.23
2019-04-25T01:53:46.458Z,10.13
2019-04-25T01:56:15.716Z,10.01
2019-04-25T01:58:45.175Z,10.02
2019-04-25T02:01:14.484Z,10.03
2019-04-25T02:03:44.259Z,10.03
2019-04-25T02:06:13.627Z,10.00
2019-04-25T02:08:42.044Z,9.96
2019-04-25T02:11:34.016Z,9.95
2019-04-25T02:14:03.937Z,9.93
2019-04-25T02:16:31.292Z,9.89
2019-04-25T02:19:00.555Z,9.87
2019-04-25T02:21:29.811Z,9.82
2019-04-25T02:23:59.062Z,9.71
2019-04-25T02:26:28.326Z,9.66
2019-04-25T02:28:58.380Z,9.59
2019-04-25T02:31:26.759Z,9.50
2019-04-25T02:33:58.812Z,9.48
2019-04-25T02:36:25.149Z,9.45
2019-04-25T02:38:59.491Z,9.45
2019-04-25T02:41:25.032Z,9.44
2019-04-25T02:43:56.295Z,9.41
2019-04-25T02:46:41.020Z,9.41
2019-04-25T02:49:36.811Z,9.40
2019-04-25T02:52:08.475Z,9.38
2019-04-25T02:54:34.847Z,9.33
2019-04-25T02:57:06.616Z,9.30
2019-04-25T02:59:34.593Z,9.27
2019-04-25T03:02:05.194Z,9.27
2019-04-25T03:04:31.073Z,9.24
2019-04-25T03:07:02.068Z,9.25
2019-04-25T03:09:29.512Z,9.23
2019-04-25T03:11:59.801Z,9.22
2019-04-25T03:14:27.992Z,9.23
2019-04-25T03:16:58.595Z,9.27
2019-04-25T03:19:34.908Z,9.29
2019-04-25T03:22:08.293Z,9.27
2019-04-25T03:24:35.133Z,9.26
2019-04-25T03:27:04.891Z,9.29
2019-04-25T03:29:32.170Z,9.23
2019-04-25T03:32:02.696Z,9.19
2019-04-25T03:34:30.612Z,9.19
2019-04-25T03:36:59.834Z,9.17
2019-04-25T03:39:29.084Z,9.17
2019-04-25T03:41:58.308Z,9.19
2019-04-25T03:44:27.594Z,9.22
2019-04-25T03:46:56.779Z,9.22
2019-04-25T03:49:25.988Z,9.20
2019-04-25T03:51:55.200Z,9.22
2019-04-25T03:54:24.378Z,9.20
2019-04-25T03:56:56.063Z,9.16
2019-04-25T03:59:23.663Z,9.13
2019-04-25T04:01:53.613Z,9.12
2019-04-25T04:04:21.184Z,9.09
2019-04-25T04:06:50.478Z,9.08
2019-04-25T04:09:19.686Z,9.07
2019-04-25T04:11:48.927Z,9.04
2019-04-25T04:14:18.125Z,9.05
2019-04-25T04:17:06.366Z,9.07
2019-04-25T04:19:39.263Z,9.08
2019-04-25T04:22:17.184Z,9.07
2019-04-25T04:24:50.352Z,9.09
2019-04-25T04:27:19.580Z,9.10
2019-04-25T04:29:48.806Z,9.08
2019-04-25T04:32:18.000Z,9.08
2019-04-25T04:34:47.201Z,9.13
2019-04-25T04:37:17.297Z,9.17
2019-04-25T04:39:45.590Z,9.19
2019-04-25T04:42:15.175Z,9.20
2019-04-25T04:44:44.000Z,9.21
2019-04-25T04:47:15.009Z,9.25
2019-04-25T04:49:43.916Z,9.30
2019-04-25T04:52:12.894Z,9.33
2019-04-25T04:54:41.004Z,9.35
2019-04-25T04:57:22.121Z,9.41
2019-04-25T04:59:39.450Z,9.43
2019-04-25T05:02:33.483Z,9.47
2019-04-25T05:05:20.646Z,9.51
2019-04-25T05:07:53.964Z,9.58
2019-04-25T05:10:23.658Z,9.65
2019-04-25T05:12:51.310Z,9.71
2019-04-25T05:15:20.611Z,9.78
2019-04-25T05:17:49.764Z,9.88
2019-04-25T05:20:18.984Z,9.94
2019-04-25T05:22:48.172Z,10.02
2019-04-25T05:25:17.790Z,10.08
2019-04-25T05:27:59.673Z,10.14
2019-04-25T05:30:19.161Z,10.24
2019-04-25T05:32:48.054Z,10.29
2019-04-25T05:35:17.792Z,10.39
2019-04-25T05:37:46.346Z,10.46
2019-04-25T05:40:16.251Z,10.56
2019-04-25T05:43:06.652Z,10.63
2019-04-25T05:45:35.868Z,10.74
2019-04-25T05:48:06.012Z,10.85
2019-04-25T05:50:34.371Z,10.95
2019-04-25T05:53:04.317Z,11.02
2019-04-25T05:55:34.177Z,11.08
2019-04-25T05:58:03.864Z,11.17
2019-04-25T06:00:31.528Z,11.26
2019-04-25T06:03:00.746Z,11.36
2019-04-25T06:05:33.523Z,11.62
2019-04-25T06:08:04.097Z,11.75
2019-04-25T06:10:55.211Z,11.96
2019-04-25T06:13:36.886Z,12.02
2019-04-25T06:16:09.176Z,12.07
2019-04-25T06:18:43.992Z,12.16
2019-04-25T06:21:13.296Z,12.30
2019-04-25T06:24:00.838Z,12.36
2019-04-25T06:26:36.851Z,12.52
2019-04-25T06:28:59.932Z,12.76
2019-04-25T06:31:29.294Z,12.76
2019-04-25T06:33:57.868Z,12.85
2019-04-25T06:36:27.193Z,12.83
2019-04-25T06:38:56.333Z,12.77
2019-04-25T06:41:26.180Z,12.88
2019-04-25T06:43:54.862Z,12.96
2019-04-25T06:46:41.833Z,12.93
2019-04-25T06:49:37.341Z,12.93
2019-04-25T06:52:05.158Z,12.93
2019-04-25T06:54:35.267Z,12.95
2019-04-25T06:57:04.525Z,13.00
2019-04-25T06:59:34.495Z,13.01
2019-04-25T07:02:04.085Z,13.08
2019-04-25T07:04:31.381Z,13.21
2019-04-25T07:07:10.592Z,13.31
2019-04-25T07:09:31.165Z,13.46
2019-04-25T07:11:59.035Z,13.58
2019-04-25T07:14:28.262Z,13.66
2019-04-25T07:16:57.554Z,13.73
2019-04-25T07:19:28.204Z,13.85
2019-04-25T07:21:56.043Z,13.93
2019-04-25T07:24:26.194Z,14.01
2019-04-25T07:27:16.547Z,14.13
2019-04-25T07:30:04.029Z,14.27
2019-04-25T07:32:39.922Z,14.38
2019-04-25T07:35:09.152Z,14.56
2019-04-25T07:37:41.478Z,14.73
2019-04-25T07:40:07.844Z,14.95
2019-04-25T07:42:37.041Z,15.01
2019-04-25T07:45:07.028Z,15.18
2019-04-25T07:47:36.447Z,15.23
2019-04-25T07:50:05.988Z,15.39
2019-04-25T07:52:35.747Z,15.57
2019-04-25T07:55:04.895Z,15.71
2019-04-25T07:57:34.910Z,15.92
2019-04-25T08:00:04.785Z,16.16
2019-04-25T08:02:34.109Z,16.27
2019-04-25T08:05:04.157Z,16.23
2019-04-25T08:07:31.668Z,16.57
2019-04-25T08:10:00.859Z,16.55
2019-04-25T08:12:30.503Z,16.70
2019-04-25T08:15:18.894Z,16.92
2019-04-25T08:18:03.945Z,17.14
2019-04-25T08:20:32.400Z,17.22
2019-04-25T08:23:01.324Z,17.63
2019-04-25T08:25:30.814Z,17.74
2019-04-25T08:27:59.770Z,18.14
2019-04-25T08:30:29.840Z,18.61
2019-04-25T08:32:58.166Z,18.98
2019-04-25T08:35:27.356Z,19.46
2019-04-25T08:37:56.554Z,19.64
2019-04-25T08:40:25.766Z,19.80
2019-04-25T08:42:54.973Z,20.24
2019-04-25T08:45:24.553Z,20.14
2019-04-25T08:47:53.875Z,20.35
2019-04-25T08:50:31.587Z,20.28
2019-04-25T08:52:58.262Z,20.13
2019-04-25T08:55:46.581Z,20.30
2019-04-25T08:58:23.652Z,19.94
2019-04-25T09:01:20.564Z,19.78
2019-04-25T09:03:54.296Z,19.85
2019-04-25T09:06:24.373Z,19.97
2019-04-25T09:08:54.061Z,20.39
2019-04-25T09:11:21.896Z,20.77
2019-04-25T09:13:51.109Z,20.89
2019-04-25T09:16:20.330Z,21.33
2019-04-25T09:18:49.564Z,21.65
2019-04-25T09:21:18.788Z,20.91
2019-04-25T09:23:48.031Z,20.64
2019-04-25T09:26:17.710Z,20.84
2019-04-25T09:28:46.924Z,20.79
2019-04-25T09:31:16.126Z,21.21
2019-04-25T09:33:46.480Z,21.81
2019-04-25T09:36:14.583Z,21.80
2019-04-25T09:38:47.055Z,21.88
2019-04-25T09:41:13.836Z,21.57
2019-04-25T09:43:42.204Z,21.75
2019-04-25T09:46:21.315Z,22.26
2019-04-25T09:49:04.270Z,22.80
2019-04-25T09:51:39.711Z,22.99
2019-04-25T09:54:46.356Z,23.04
2019-04-25T09:57:33.475Z,22.67
2019-04-25T10:00:03.530Z,23.16
2019-04-25T10:02:31.098Z,22.83
2019-04-25T10:05:00.332Z,22.28
2019-04-25T10:07:29.521Z,22.11
2019-04-25T10:09:58.776Z,22.49
2019-04-25T10:12:27.941Z,22.26
2019-04-25T10:15:47.985Z,22.66
2019-04-25T10:18:16.886Z,22.71
2019-04-25T10:20:46.339Z,23.13
2019-04-25T10:23:15.655Z,23.08
2019-04-25T10:25:45.087Z,23.27
2019-04-25T10:28:13.869Z,23.20
2019-04-25T10:30:43.101Z,23.20
2019-04-25T10:33:14.142Z,23.65
2019-04-25T10:35:50.662Z,23.65
2019-04-25T10:38:11.045Z,23.68
2019-04-25T10:40:40.590Z,23.45
2019-04-25T10:43:09.508Z,23.66
2019-04-25T10:45:39.765Z,23.78
2019-04-25T10:48:07.918Z,23.93
2019-04-25T10:50:37.156Z,23.25
2019-04-25T10:53:06.358Z,23.79
2019-04-25T10:55:35.578Z,23.98
2019-04-25T10:58:04.798Z,24.31
2019-04-25T11:00:36.274Z,24.74
2019-04-25T11:03:26.498Z,24.91
2019-04-25T11:05:54.414Z,24.63
2019-04-25T11:08:24.542Z,23.96
2019-04-25T11:10:55.418Z,23.50
2019-04-25T11:13:24.598Z,22.89
2019-04-25T11:15:55.857Z,22.46
2019-04-25T11:18:23.873Z,22.30
2019-04-25T11:20:53.232Z,22.08
2019-04-25T11:23:21.495Z,22.56
2019-04-25T11:25:54.175Z,23.31
2019-04-25T11:28:21.514Z,24.30
2019-04-25T11:30:50.706Z,24.12
2019-04-25T11:33:19.947Z,24.39
2019-04-25T11:35:49.166Z,24.72
2019-04-25T11:38:24.036Z,24.67
2019-04-25T11:40:57.528Z,24.96
2019-04-25T11:43:26.750Z,25.03
2019-04-25T11:45:57.073Z,26.11
2019-04-25T11:48:25.204Z,26.86
2019-04-25T11:50:55.863Z,26.56
2019-04-25T11:53:25.022Z,27.06
2019-04-25T11:55:53.775Z,27.49
2019-04-25T11:58:23.570Z,28.33
2019-04-25T12:00:51.586Z,28.55
2019-04-25T12:03:20.779Z,28.63
2019-04-25T12:05:50.164Z,28.97
2019-04-25T12:08:19.158Z,29.40
2019-04-25T12:10:49.402Z,29.74
2019-04-25T12:13:17.692Z,29.99
2019-04-25T12:15:47.169Z,30.54
2019-04-25T12:18:16.130Z,30.68
2019-04-25T12:20:46.586Z,30.49
2019-04-25T12:23:14.634Z,30.68
2019-04-25T12:25:45.314Z,30.78
2019-04-25T12:28:14.166Z,31.37
2019-04-25T12:30:43.922Z,31.22
2019-04-25T12:33:19.196Z,31.37
2019-04-25T12:35:40.730Z,31.67
2019-04-25T12:38:09.934Z,32.07
2019-04-25T12:40:39.129Z,32.22
2019-04-25T12:43:08.340Z,32.33
2019-04-25T12:45:45.791Z,32.29
2019-04-25T12:48:14.619Z,30.79
2019-04-25T12:50:44.043Z,31.19
2019-04-25T12:53:13.918Z,30.73
2019-04-25T12:55:44.156Z,30.37
2019-04-25T12:58:13.208Z,30.31
2019-04-25T13:00:47.803Z,29.99
2019-04-25T13:03:10.135Z,29.01
2019-04-25T13:05:39.373Z,27.82
2019-04-25T13:08:08.586Z,27.48
2019-04-25T13:10:37.773Z,27.05
2019-04-25T13:13:07.019Z,26.41
2019-04-25T13:15:36.198Z,26.24
2019-04-25T13:18:05.448Z,26.15
2019-04-25T13:20:34.685Z,26.49
2019-04-25T13:23:04.795Z,26.81
2019-04-25T13:25:34.299Z,27.01
2019-04-25T13:28:14.496Z,27.48
2019-04-25T13:31:10.310Z,27.89
2019-04-25T13:33:54.968Z,28.19
2019-04-25T13:36:24.210Z,28.34
2019-04-25T13:38:53.939Z,26.09
2019-04-25T13:41:22.624Z,27.90
2019-04-25T13:43:53.046Z,27.46
2019-04-25T13:46:24.341Z,27.21
2019-04-25T13:48:50.332Z,27.43
2019-04-25T13:51:19.862Z,27.80
2019-04-25T13:53:48.786Z,28.48
2019-04-25T13:56:18.009Z,28.40
2019-04-25T13:58:49.962Z,28.27
2019-04-25T14:01:19.168Z,28.95
2019-04-25T14:03:48.358Z,29.40
2019-04-25T14:06:17.546Z,29.76
2019-04-25T14:08:46.759Z,29.59
2019-04-25T14:11:15.963Z,29.52
2019-04-25T14:13:45.170Z,29.53
2019-04-25T14:16:25.334Z,29.78
2019-04-25T14:19:14.759Z,30.32
2019-04-25T14:21:43.457Z,30.19
2019-04-25T14:24:20.351Z,30.62
2019-04-25T14:26:41.758Z,30.58
2019-04-25T14:29:10.996Z,30.77
2019-04-25T14:31:45.692Z,31.03
2019-04-25T14:34:09.485Z,31.13
2019-04-25T14:36:38.752Z,31.14
2019-04-25T14:39:08.316Z,31.12
2019-04-25T14:41:37.537Z,31.17
2019-04-25T14:44:06.734Z,31.04
2019-04-25T14:46:35.931Z,30.69
2019-04-25T14:49:05.128Z,30.42
2019-04-25T14:51:34.354Z,30.24
2019-04-25T14:54:03.628Z,30.37
2019-04-25T14:56:41.343Z,30.43
2019-04-25T14:59:10.532Z,30.31
2019-04-25T15:01:45.064Z,30.23
2019-04-25T15:04:08.948Z,30.13
2019-04-25T15:06:38.219Z,29.90
2019-04-25T15:09:07.871Z,29.55
2019-04-25T15:11:37.167Z,29.42
2019-04-25T15:14:06.351Z,29.32
2019-04-25T15:16:35.600Z,29.39
2019-04-25T15:19:04.796Z,29.44
2019-04-25T15:21:34.041Z,29.53
2019-04-25T15:24:03.224Z,29.60
2019-04-25T15:26:33.253Z,29.38
2019-04-25T15:29:01.670Z,29.02
2019-04-25T15:31:32.035Z,28.75
2019-04-25T15:34:02.365Z,28.53
2019-04-25T15:36:34.346Z,28.47
2019-04-25T15:39:22.696Z,28.70
2019-04-25T15:42:02.457Z,28.71
2019-04-25T15:44:50.558Z,28.55
2019-04-25T15:47:21.634Z,28.51
2019-04-25T15:49:50.853Z,28.22
2019-04-25T15:52:20.118Z,28.49
2019-04-25T15:54:49.338Z,28.56
2019-04-25T15:57:18.598Z,28.68
2019-04-25T15:59:47.874Z,28.88
2019-04-25T16:02:17.076Z,28.82
2019-04-25T16:04:46.268Z,29.17
2019-04-25T16:07:15.514Z,29.45
2019-04-25T16:09:44.712Z,29.59
2019-04-25T16:12:13.902Z,29.71
2019-04-25T16:14:43.174Z,29.68
2019-04-25T16:17:12.410Z,29.89
2019-04-25T16:19:42.232Z,29.85
2019-04-25T16:22:11.416Z,29.67
2019-04-25T16:24:41.066Z,29.48
2019-04-25T16:27:09.914Z,29.26
2019-04-25T16:29:39.176Z,29.21
2019-04-25T16:32:19.925Z,29.14
2019-04-25T16:34:39.953Z,29.02
2019-04-25T16:37:08.527Z,28.95
2019-04-25T16:39:37.949Z,28.73
2019-04-25T16:42:07.162Z,28.59
2019-04-25T16:44:36.424Z,28.29
2019-04-25T16:47:05.687Z,27.88
2019-04-25T16:49:34.922Z,27.61
2019-04-25T16:52:04.159Z,27.37
2019-04-25T16:54:33.855Z,27.12
2019-04-25T16:57:02.645Z,26.87
2019-04-25T16:59:31.936Z,26.59
2019-04-25T17:02:01.247Z,26.39
2019-04-25T17:04:31.199Z,26.04
2019-04-25T17:07:00.092Z,25.99
2019-04-25T17:09:30.366Z,26.02
2019-04-25T17:11:58.463Z,26.09
2019-04-25T17:14:34.023Z,26.02
2019-04-25T17:17:22.266Z,25.81
2019-04-25T17:19:59.031Z,25.44
2019-04-25T17:22:28.261Z,25.01
2019-04-25T17:24:57.500Z,24.55
2019-04-25T17:27:26.744Z,24.33
2019-04-25T17:29:55.963Z,24.17
2019-04-25T17:32:53.577Z,24.02
2019-04-25T17:35:41.051Z,23.78
2019-04-25T17:38:14.966Z,23.46
2019-04-25T17:40:44.143Z,23.17
2019-04-25T17:43:13.349Z,22.90
2019-04-25T17:45:42.592Z,22.68
2019-04-25T17:48:11.922Z,22.39
2019-04-25T17:50:41.787Z,22.18
2019-04-25T17:53:10.356Z,22.00
2019-04-25T17:55:39.613Z,21.87
2019-04-25T17:58:08.762Z,21.73
2019-04-25T18:00:39.708Z,21.59
2019-04-25T18:03:10.223Z,21.43
2019-04-25T18:05:39.779Z,21.30
2019-04-25T18:08:09.088Z,21.17
2019-04-25T18:10:38.354Z,21.07
2019-04-25T18:13:09.409Z,20.96
2019-04-25T18:15:51.188Z,20.87
2019-04-25T18:18:30.802Z,20.78
2019-04-25T18:21:00.212Z,20.69
2019-04-25T18:24:00.200Z,20.60
2019-04-25T18:26:35.237Z,20.52
2019-04-25T18:29:07.478Z,20.42
2019-04-25T18:31:36.698Z,20.33
2019-04-25T18:34:07.298Z,20.27
2019-04-25T18:36:45.048Z,20.19
2019-04-25T18:39:24.510Z,20.14
2019-04-25T18:42:20.748Z,20.08
2019-04-25T18:44:50.010Z,20.01
2019-04-25T18:47:19.394Z,19.91
2019-04-25T18:49:48.690Z,19.83
2019-04-25T18:52:37.190Z,19.77
2019-04-25T18:55:13.378Z,19.70
2019-04-25T18:57:47.300Z,19.65
2019-04-25T19:00:33.441Z,19.58
2019-04-25T19:03:09.196Z,19.54
2019-04-25T19:06:12.986Z,19.48
2019-04-25T19:08:48.264Z,19.42
2019-04-25T19:11:17.652Z,19.34
2019-04-25T19:13:47.384Z,19.30
2019-04-25T19:16:15.992Z,19.26
2019-04-25T19:18:46.797Z,19.21
2019-04-25T19:21:14.533Z,19.14
2019-04-25T19:23:43.842Z,19.09
2019-04-25T19:26:13.142Z,19.06
2019-04-25T19:28:42.783Z,19.02
2019-04-25T19:31:11.706Z,19.01
2019-04-25T19:33:41.663Z,18.98
2019-04-25T19:36:10.284Z,18.96
2019-04-25T19:38:40.628Z,18.95
2019-04-25T19:41:15.426Z,18.94
2019-04-25T19:44:12.859Z,18.92
2019-04-25T19:46:44.827Z,18.90
2019-04-25T19:49:13.010Z,18.88
2019-04-25T19:51:43.062Z,18.97
2019-04-25T19:54:12.078Z,19.01
2019-04-25T19:56:42.689Z,19.07
2019-04-25T19:59:10.701Z,19.12
2019-04-25T20:01:39.960Z,19.15
2019-04-25T20:04:16.402Z,19.16
2019-04-25T20:07:03.882Z,19.10
2019-04-25T20:09:51.125Z,19.03
2019-04-25T20:12:20.349Z,18.95
2019-04-25T20:14:49.604Z,18.89
2019-04-25T20:17:18.829Z,18.83
2019-04-25T20:19:48.098Z,18.81
2019-04-25T20:22:17.657Z,18.79
2019-04-25T20:24:46.840Z,18.77
2019-04-25T20:27:16.094Z,18.77
2019-04-25T20:29:46.524Z,18.76
2019-04-25T20:32:14.624Z,18.72
2019-04-25T20:34:44.590Z,18.68
2019-04-25T20:37:13.195Z,18.62
2019-04-25T20:39:42.519Z,18.58
2019-04-25T20:42:11.792Z,18.51
2019-04-25T20:44:41.027Z,18.43
2019-04-25T20:47:10.285Z,18.36
2019-04-25T20:49:39.500Z,18.29
2019-04-25T20:52:08.723Z,18.22
2019-04-25T20:54:38.039Z,18.17
2019-04-25T20:57:07.274Z,18.13
2019-04-25T20:59:36.502Z,18.12
2019-04-25T21:02:05.981Z,18.06
2019-04-25T21:04:41.987Z,18.07
2019-04-25T21:07:11.187Z,18.04
2019-04-25T21:09:40.416Z,18.02
2019-04-25T21:12:09.768Z,18.00
2019-04-25T21:14:44.648Z,18.00
2019-04-25T21:17:18.103Z,17.99
2019-04-25T21:19:48.891Z,17.99
2019-04-25T21:22:17.005Z,17.98
2019-04-25T21:24:46.249Z,18.01
2019-04-25T21:27:15.504Z,18.00
2019-04-25T21:29:44.717Z,17.98
2019-04-25T21:32:13.933Z,17.99
2019-04-25T21:34:43.219Z,18.01
2019-04-25T21:37:12.523Z,17.98
2019-04-25T21:40:07.087Z,17.99
2019-04-25T21:42:43.000Z,17.99
2019-04-25T21:45:12.226Z,18.00
2019-04-25T21:47:41.479Z,18.00
2019-04-25T21:50:10.680Z,18.02
2019-04-25T21:52:39.947Z,18.02
2019-04-25T21:55:09.179Z,18.02
2019-04-25T21:57:38.457Z,18.04
2019-04-25T22:00:09.365Z,18.02
2019-04-25T22:02:38.537Z,18.01
2019-04-25T22:05:07.728Z,17.99
2019-04-25T22:07:36.982Z,17.95
2019-04-25T22:10:06.333Z,17.92
2019-04-25T22:12:35.544Z,17.87
2019-04-25T22:15:05.718Z,17.84
2019-04-25T22:17:34.175Z,17.79
2019-04-25T22:20:04.039Z,17.77
2019-04-25T22:22:32.801Z,17.75
2019-04-25T22:25:02.657Z,17.74
2019-04-25T22:27:32.839Z,17.73
2019-04-25T22:30:02.128Z,17.73
2019-04-25T22:32:42.673Z,17.72
2019-04-25T22:35:33.067Z,17.88
2019-04-25T22:38:02.290Z,17.84
2019-04-25T22:40:31.613Z,17.84
2019-04-25T22:43:01.718Z,17.86
2019-04-25T22:45:30.121Z,17.85
2019-04-25T22:48:00.473Z,17.95
2019-04-25T22:50:28.731Z,18.03
2019-04-25T22:52:57.945Z,18.09
2019-04-25T22:55:27.228Z,18.18
2019-04-25T22:57:56.509Z,18.23
2019-04-25T23:00:29.756Z,18.27
2019-04-25T23:03:03.335Z,18.44
2019-04-25T23:05:35.022Z,18.43
2019-04-25T23:08:06.656Z,18.29
2019-04-25T23:10:33.573Z,17.93
2019-04-25T23:13:03.343Z,17.52
2019-04-25T23:15:32.061Z,17.12
2019-04-25T23:18:01.353Z,16.86
2019-04-25T23:20:30.661Z,16.56
2019-04-25T23:22:59.964Z,16.29
2019-04-25T23:25:33.603Z,16.20
2019-04-25T23:28:08.021Z,15.96
2019-04-25T23:30:55.395Z,15.91
2019-04-25T23:33:24.611Z,15.77
2019-04-25T23:35:53.885Z,15.70
2019-04-25T23:38:23.199Z,15.62
2019-04-25T23:40:52.465Z,15.51
2019-04-25T23:43:21.747Z,15.45
2019-04-25T23:45:51.005Z,15.42
2019-04-25T23:48:20.271Z,15.36
2019-04-25T23:50:49.501Z,15.31
2019-04-25T23:53:18.823Z,15.23
2019-04-25T23:55:48.452Z,15.20
2019-04-25T23:58:18.044Z,15.13
